Mc Murray, Pennsylvania
Current Conditions -  °F | °C
As of 2:53 PM on Monday 22 Dec 2014 (Local Time) from KAGC Reporting Station
Clear Clear  
Wind Chill: 40°   Ceiling: Unl
Heat Index: 45°   Visibility: 10mi
Dew Point: 28°   Wind: 10mph
Humidity: 52%   Direction: 120°ESE
Pressure: 29.99"   Gusts: NA
Location:  40.274°N, 80.1538°W
Report Text: KAGC 221953Z AUTO 12009KT 10SM CLR 07/M02 A2999 RMK AO2 SLP169 T00721022 TSNO
Loading
Personal Weather Stations






























Interactive Weather Map New forecast layout! Learn more

10-Day Weather Forecast

Advertisements
Track Severe Weather on mobile